sensor_id;sensor_type;location;lat;lon;timestamp;P1;durP1;ratioP1;P2;durP2;ratioP2
75496;SDS011;64074;47.540;19.072;2023-07-08T00:01:56;6.70;;;4.38;;
75496;SDS011;64074;47.540;19.072;2023-07-08T00:05:00;7.07;;;4.33;;
75496;SDS011;64074;47.540;19.072;2023-07-08T00:08:03;6.28;;;4.22;;
75496;SDS011;64074;47.540;19.072;2023-07-08T00:11:10;8.40;;;4.15;;
75496;SDS011;64074;47.540;19.072;2023-07-08T00:14:15;7.53;;;4.10;;
75496;SDS011;64074;47.540;19.072;2023-07-08T00:17:19;5.35;;;4.00;;
75496;SDS011;64074;47.540;19.072;2023-07-08T00:20:39;6.00;;;4.10;;
75496;SDS011;64074;47.540;19.072;2023-07-08T00:23:50;4.95;;;3.95;;
75496;SDS011;64074;47.540;19.072;2023-07-08T00:26:54;5.78;;;4.40;;
75496;SDS011;64074;47.540;19.072;2023-07-08T00:29:57;7.55;;;4.28;;
75496;SDS011;64074;47.540;19.072;2023-07-08T00:33:02;7.97;;;4.07;;
75496;SDS011;64074;47.540;19.072;2023-07-08T00:36:11;4.77;;;3.93;;
75496;SDS011;64074;47.540;19.072;2023-07-08T00:39:15;5.88;;;4.40;;
75496;SDS011;64074;47.540;19.072;2023-07-08T00:42:19;7.35;;;4.30;;
75496;SDS011;64074;47.540;19.072;2023-07-08T00:45:32;8.13;;;4.35;;
75496;SDS011;64074;47.540;19.072;2023-07-08T00:49:11;6.05;;;4.40;;
75496;SDS011;64074;47.540;19.072;2023-07-08T00:52:39;6.50;;;4.30;;
75496;SDS011;64074;47.540;19.072;2023-07-08T00:55:43;5.93;;;4.07;;
75496;SDS011;64074;47.540;19.072;2023-07-08T00:58:50;6.22;;;4.50;;
75496;SDS011;64074;47.540;19.072;2023-07-08T01:01:58;6.55;;;4.57;;
75496;SDS011;64074;47.540;19.072;2023-07-08T01:05:06;7.35;;;4.28;;
75496;SDS011;64074;47.540;19.072;2023-07-08T01:08:13;6.90;;;4.47;;
75496;SDS011;64074;47.540;19.072;2023-07-08T01:11:18;8.32;;;4.70;;
75496;SDS011;64074;47.540;19.072;2023-07-08T01:14:24;7.03;;;4.32;;
75496;SDS011;64074;47.540;19.072;2023-07-08T01:17:35;6.78;;;4.47;;
75496;SDS011;64074;47.540;19.072;2023-07-08T01:20:39;5.47;;;3.95;;
75496;SDS011;64074;47.540;19.072;2023-07-08T01:23:42;6.67;;;4.37;;
75496;SDS011;64074;47.540;19.072;2023-07-08T01:26:45;6.47;;;4.30;;
75496;SDS011;64074;47.540;19.072;2023-07-08T01:29:50;6.28;;;4.22;;
75496;SDS011;64074;47.540;19.072;2023-07-08T01:32:58;6.35;;;4.57;;
75496;SDS011;64074;47.540;19.072;2023-07-08T01:36:07;6.45;;;5.00;;
75496;SDS011;64074;47.540;19.072;2023-07-08T01:39:13;6.83;;;4.57;;
75496;SDS011;64074;47.540;19.072;2023-07-08T01:42:20;5.65;;;4.20;;
75496;SDS011;64074;47.540;19.072;2023-07-08T01:45:26;8.02;;;4.32;;
75496;SDS011;64074;47.540;19.072;2023-07-08T01:48:33;8.25;;;4.30;;
75496;SDS011;64074;47.540;19.072;2023-07-08T01:51:42;7.18;;;4.60;;
75496;SDS011;64074;47.540;19.072;2023-07-08T01:54:53;8.70;;;4.60;;
75496;SDS011;64074;47.540;19.072;2023-07-08T01:57:57;7.45;;;4.40;;
75496;SDS011;64074;47.540;19.072;2023-07-08T02:01:01;7.88;;;4.78;;
75496;SDS011;64074;47.540;19.072;2023-07-08T02:04:05;6.57;;;4.10;;
75496;SDS011;64074;47.540;19.072;2023-07-08T02:07:08;5.07;;;4.20;;
75496;SDS011;64074;47.540;19.072;2023-07-08T02:10:11;8.63;;;4.50;;
75496;SDS011;64074;47.540;19.072;2023-07-08T02:13:15;6.55;;;4.30;;
75496;SDS011;64074;47.540;19.072;2023-07-08T02:16:18;5.50;;;4.13;;
75496;SDS011;64074;47.540;19.072;2023-07-08T02:19:21;7.80;;;4.57;;
75496;SDS011;64074;47.540;19.072;2023-07-08T02:22:24;7.07;;;4.53;;
75496;SDS011;64074;47.540;19.072;2023-07-08T02:25:27;5.10;;;3.83;;
75496;SDS011;64074;47.540;19.072;2023-07-08T02:28:31;9.77;;;4.07;;
75496;SDS011;64074;47.540;19.072;2023-07-08T02:31:34;9.13;;;4.10;;
75496;SDS011;64074;47.540;19.072;2023-07-08T02:34:37;8.38;;;4.13;;
75496;SDS011;64074;47.540;19.072;2023-07-08T02:37:42;4.90;;;4.18;;
75496;SDS011;64074;47.540;19.072;2023-07-08T02:40:45;6.23;;;4.53;;
75496;SDS011;64074;47.540;19.072;2023-07-08T02:43:48;7.05;;;4.38;;
75496;SDS011;64074;47.540;19.072;2023-07-08T02:46:52;6.18;;;4.15;;
75496;SDS011;64074;47.540;19.072;2023-07-08T02:49:55;6.60;;;4.70;;
75496;SDS011;64074;47.540;19.072;2023-07-08T02:52:58;7.07;;;4.45;;
75496;SDS011;64074;47.540;19.072;2023-07-08T02:56:01;7.47;;;4.47;;
75496;SDS011;64074;47.540;19.072;2023-07-08T02:59:05;8.15;;;4.10;;
75496;SDS011;64074;47.540;19.072;2023-07-08T03:02:08;8.52;;;4.32;;
75496;SDS011;64074;47.540;19.072;2023-07-08T03:05:12;6.00;;;3.90;;
75496;SDS011;64074;47.540;19.072;2023-07-08T03:08:15;8.45;;;4.32;;
75496;SDS011;64074;47.540;19.072;2023-07-08T03:11:21;7.33;;;3.93;;
75496;SDS011;64074;47.540;19.072;2023-07-08T03:14:24;6.75;;;4.45;;
75496;SDS011;64074;47.540;19.072;2023-07-08T03:17:27;5.57;;;4.18;;
75496;SDS011;64074;47.540;19.072;2023-07-08T03:20:30;5.93;;;4.18;;
75496;SDS011;64074;47.540;19.072;2023-07-08T03:23:36;8.73;;;4.45;;
75496;SDS011;64074;47.540;19.072;2023-07-08T03:26:40;7.73;;;4.20;;
75496;SDS011;64074;47.540;19.072;2023-07-08T03:29:43;6.15;;;4.03;;
75496;SDS011;64074;47.540;19.072;2023-07-08T03:32:47;6.88;;;4.50;;
75496;SDS011;64074;47.540;19.072;2023-07-08T03:35:50;6.20;;;4.38;;
75496;SDS011;64074;47.540;19.072;2023-07-08T03:38:55;8.50;;;4.50;;
75496;SDS011;64074;47.540;19.072;2023-07-08T03:42:00;7.33;;;4.43;;
75496;SDS011;64074;47.540;19.072;2023-07-08T03:45:04;7.50;;;4.00;;
75496;SDS011;64074;47.540;19.072;2023-07-08T03:48:09;6.15;;;4.63;;
75496;SDS011;64074;47.540;19.072;2023-07-08T03:51:21;5.75;;;4.18;;
75496;SDS011;64074;47.540;19.072;2023-07-08T03:54:28;8.57;;;4.32;;
75496;SDS011;64074;47.540;19.072;2023-07-08T03:57:33;5.60;;;4.00;;
75496;SDS011;64074;47.540;19.072;2023-07-08T04:00:37;6.50;;;4.20;;
75496;SDS011;64074;47.540;19.072;2023-07-08T04:03:40;6.38;;;4.80;;
75496;SDS011;64074;47.540;19.072;2023-07-08T04:06:44;6.13;;;4.20;;
75496;SDS011;64074;47.540;19.072;2023-07-08T04:09:48;6.93;;;4.53;;
75496;SDS011;64074;47.540;19.072;2023-07-08T04:12:55;6.03;;;4.20;;
75496;SDS011;64074;47.540;19.072;2023-07-08T04:16:02;4.95;;;4.20;;
75496;SDS011;64074;47.540;19.072;2023-07-08T04:19:07;6.75;;;4.55;;
75496;SDS011;64074;47.540;19.072;2023-07-08T04:22:17;5.25;;;4.25;;
75496;SDS011;64074;47.540;19.072;2023-07-08T04:25:20;8.77;;;4.60;;
75496;SDS011;64074;47.540;19.072;2023-07-08T04:28:24;6.10;;;4.53;;
75496;SDS011;64074;47.540;19.072;2023-07-08T04:31:27;5.82;;;4.32;;
75496;SDS011;64074;47.540;19.072;2023-07-08T04:34:30;6.40;;;4.75;;
75496;SDS011;64074;47.540;19.072;2023-07-08T04:37:34;6.10;;;4.63;;
75496;SDS011;64074;47.540;19.072;2023-07-08T04:40:37;8.05;;;4.88;;
75496;SDS011;64074;47.540;19.072;2023-07-08T04:43:42;8.97;;;4.83;;
75496;SDS011;64074;47.540;19.072;2023-07-08T04:46:56;6.28;;;4.70;;
75496;SDS011;64074;47.540;19.072;2023-07-08T04:49:59;7.53;;;4.72;;
75496;SDS011;64074;47.540;19.072;2023-07-08T04:53:02;7.55;;;4.75;;
75496;SDS011;64074;47.540;19.072;2023-07-08T04:56:07;6.57;;;4.65;;
75496;SDS011;64074;47.540;19.072;2023-07-08T04:59:11;7.33;;;4.60;;
75496;SDS011;64074;47.540;19.072;2023-07-08T05:02:18;5.30;;;4.30;;
75496;SDS011;64074;47.540;19.072;2023-07-08T05:05:22;6.85;;;4.90;;
75496;SDS011;64074;47.540;19.072;2023-07-08T05:08:25;7.05;;;4.50;;
75496;SDS011;64074;47.540;19.072;2023-07-08T05:11:29;7.40;;;5.22;;
75496;SDS011;64074;47.540;19.072;2023-07-08T05:14:33;6.83;;;4.73;;
75496;SDS011;64074;47.540;19.072;2023-07-08T05:17:37;6.95;;;4.38;;
75496;SDS011;64074;47.540;19.072;2023-07-08T05:20:40;6.90;;;4.80;;
75496;SDS011;64074;47.540;19.072;2023-07-08T05:23:49;7.50;;;4.80;;
75496;SDS011;64074;47.540;19.072;2023-07-08T05:26:52;6.43;;;4.50;;
75496;SDS011;64074;47.540;19.072;2023-07-08T05:29:56;7.13;;;4.90;;
75496;SDS011;64074;47.540;19.072;2023-07-08T05:33:00;7.85;;;4.40;;
75496;SDS011;64074;47.540;19.072;2023-07-08T05:36:03;6.78;;;4.78;;
75496;SDS011;64074;47.540;19.072;2023-07-08T05:39:07;5.97;;;4.60;;
75496;SDS011;64074;47.540;19.072;2023-07-08T05:42:10;5.75;;;4.47;;
75496;SDS011;64074;47.540;19.072;2023-07-08T05:45:13;6.37;;;4.03;;
75496;SDS011;64074;47.540;19.072;2023-07-08T05:48:16;6.05;;;4.50;;
75496;SDS011;64074;47.540;19.072;2023-07-08T05:51:20;5.57;;;4.38;;
75496;SDS011;64074;47.540;19.072;2023-07-08T05:54:23;7.90;;;4.43;;
75496;SDS011;64074;47.540;19.072;2023-07-08T05:57:28;7.45;;;4.72;;
75496;SDS011;64074;47.540;19.072;2023-07-08T06:00:31;6.30;;;4.13;;
75496;SDS011;64074;47.540;19.072;2023-07-08T06:03:40;10.52;;;4.57;;
75496;SDS011;64074;47.540;19.072;2023-07-08T06:06:43;6.35;;;4.32;;
75496;SDS011;64074;47.540;19.072;2023-07-08T06:09:49;9.95;;;4.40;;
75496;SDS011;64074;47.540;19.072;2023-07-08T06:12:54;5.63;;;4.05;;
75496;SDS011;64074;47.540;19.072;2023-07-08T06:15:57;5.13;;;3.30;;
75496;SDS011;64074;47.540;19.072;2023-07-08T06:19:00;6.65;;;3.45;;
75496;SDS011;64074;47.540;19.072;2023-07-08T06:22:03;4.57;;;4.18;;
75496;SDS011;64074;47.540;19.072;2023-07-08T06:25:27;5.40;;;3.88;;
75496;SDS011;64074;47.540;19.072;2023-07-08T06:28:30;5.30;;;3.47;;
75496;SDS011;64074;47.540;19.072;2023-07-08T06:31:33;5.47;;;3.53;;
75496;SDS011;64074;47.540;19.072;2023-07-08T06:34:36;6.13;;;3.50;;
75496;SDS011;64074;47.540;19.072;2023-07-08T06:37:39;5.40;;;4.03;;
75496;SDS011;64074;47.540;19.072;2023-07-08T06:40:42;5.80;;;3.58;;
75496;SDS011;64074;47.540;19.072;2023-07-08T06:43:45;5.18;;;3.67;;
75496;SDS011;64074;47.540;19.072;2023-07-08T06:46:55;4.97;;;3.60;;
75496;SDS011;64074;47.540;19.072;2023-07-08T06:49:59;5.30;;;3.33;;
75496;SDS011;64074;47.540;19.072;2023-07-08T06:53:02;6.22;;;3.80;;
75496;SDS011;64074;47.540;19.072;2023-07-08T06:56:06;4.88;;;3.55;;
75496;SDS011;64074;47.540;19.072;2023-07-08T06:59:09;5.35;;;3.72;;
75496;SDS011;64074;47.540;19.072;2023-07-08T07:02:12;5.27;;;3.27;;
75496;SDS011;64074;47.540;19.072;2023-07-08T07:05:16;5.63;;;3.50;;
75496;SDS011;64074;47.540;19.072;2023-07-08T07:08:20;3.45;;;3.08;;
75496;SDS011;64074;47.540;19.072;2023-07-08T07:11:24;4.35;;;3.60;;
75496;SDS011;64074;47.540;19.072;2023-07-08T07:14:27;4.28;;;3.30;;
75496;SDS011;64074;47.540;19.072;2023-07-08T07:17:33;8.23;;;3.30;;
75496;SDS011;64074;47.540;19.072;2023-07-08T07:20:38;8.52;;;3.13;;
75496;SDS011;64074;47.540;19.072;2023-07-08T07:23:41;4.35;;;3.40;;
75496;SDS011;64074;47.540;19.072;2023-07-08T07:26:44;5.78;;;3.25;;
75496;SDS011;64074;47.540;19.072;2023-07-08T07:29:50;4.13;;;3.28;;
75496;SDS011;64074;47.540;19.072;2023-07-08T07:32:54;5.67;;;3.00;;
75496;SDS011;64074;47.540;19.072;2023-07-08T07:36:02;5.45;;;3.28;;
75496;SDS011;64074;47.540;19.072;2023-07-08T07:39:06;5.22;;;3.90;;
75496;SDS011;64074;47.540;19.072;2023-07-08T07:42:09;5.93;;;3.28;;
75496;SDS011;64074;47.540;19.072;2023-07-08T07:45:13;7.20;;;3.50;;
75496;SDS011;64074;47.540;19.072;2023-07-08T07:48:17;8.53;;;3.17;;
75496;SDS011;64074;47.540;19.072;2023-07-08T07:51:20;3.45;;;2.80;;
75496;SDS011;64074;47.540;19.072;2023-07-08T07:54:24;4.40;;;3.03;;
75496;SDS011;64074;47.540;19.072;2023-07-08T07:57:27;4.30;;;2.80;;
75496;SDS011;64074;47.540;19.072;2023-07-08T08:00:31;4.00;;;2.97;;
75496;SDS011;64074;47.540;19.072;2023-07-08T08:03:34;4.27;;;3.00;;
75496;SDS011;64074;47.540;19.072;2023-07-08T08:06:37;4.55;;;3.20;;
75496;SDS011;64074;47.540;19.072;2023-07-08T08:09:40;5.55;;;3.50;;
75496;SDS011;64074;47.540;19.072;2023-07-08T08:12:43;4.63;;;3.30;;
75496;SDS011;64074;47.540;19.072;2023-07-08T08:15:58;6.13;;;3.03;;
75496;SDS011;64074;47.540;19.072;2023-07-08T08:19:02;5.67;;;3.40;;
75496;SDS011;64074;47.540;19.072;2023-07-08T08:22:10;3.55;;;3.10;;
75496;SDS011;64074;47.540;19.072;2023-07-08T08:25:14;5.18;;;3.35;;
75496;SDS011;64074;47.540;19.072;2023-07-08T08:28:18;4.88;;;3.30;;
75496;SDS011;64074;47.540;19.072;2023-07-08T08:31:21;7.15;;;3.28;;
75496;SDS011;64074;47.540;19.072;2023-07-08T08:34:24;5.77;;;3.57;;
75496;SDS011;64074;47.540;19.072;2023-07-08T08:37:27;6.10;;;3.50;;
75496;SDS011;64074;47.540;19.072;2023-07-08T08:40:31;4.32;;;3.30;;
75496;SDS011;64074;47.540;19.072;2023-07-08T08:43:35;4.60;;;3.55;;
75496;SDS011;64074;47.540;19.072;2023-07-08T08:53:35;5.95;;;3.60;;
75496;SDS011;64074;47.540;19.072;2023-07-08T08:56:41;6.47;;;3.90;;
75496;SDS011;64074;47.540;19.072;2023-07-08T09:00:10;6.75;;;3.60;;
75496;SDS011;64074;47.540;19.072;2023-07-08T09:03:27;5.35;;;3.90;;
75496;SDS011;64074;47.540;19.072;2023-07-08T09:06:34;5.97;;;3.23;;
75496;SDS011;64074;47.540;19.072;2023-07-08T09:09:45;4.43;;;3.60;;
75496;SDS011;64074;47.540;19.072;2023-07-08T09:13:04;6.00;;;3.78;;
75496;SDS011;64074;47.540;19.072;2023-07-08T09:16:14;5.50;;;3.70;;
75496;SDS011;64074;47.540;19.072;2023-07-08T09:19:23;5.53;;;3.97;;
75496;SDS011;64074;47.540;19.072;2023-07-08T09:22:38;9.07;;;3.57;;
75496;SDS011;64074;47.540;19.072;2023-07-08T09:25:56;5.22;;;4.05;;
75496;SDS011;64074;47.540;19.072;2023-07-08T09:29:07;4.55;;;3.55;;
75496;SDS011;64074;47.540;19.072;2023-07-08T09:32:16;5.63;;;3.70;;
75496;SDS011;64074;47.540;19.072;2023-07-08T09:35:23;7.30;;;4.00;;
75496;SDS011;64074;47.540;19.072;2023-07-08T09:38:30;4.63;;;4.10;;
75496;SDS011;64074;47.540;19.072;2023-07-08T09:41:36;6.32;;;3.53;;
75496;SDS011;64074;47.540;19.072;2023-07-08T09:44:39;5.13;;;3.83;;
75496;SDS011;64074;47.540;19.072;2023-07-08T09:47:43;5.57;;;3.58;;
75496;SDS011;64074;47.540;19.072;2023-07-08T09:50:48;6.05;;;3.67;;
75496;SDS011;64074;47.540;19.072;2023-07-08T09:53:55;6.50;;;4.10;;
75496;SDS011;64074;47.540;19.072;2023-07-08T09:57:04;6.43;;;3.67;;
75496;SDS011;64074;47.540;19.072;2023-07-08T10:00:15;4.20;;;3.80;;
75496;SDS011;64074;47.540;19.072;2023-07-08T10:03:23;4.63;;;3.45;;
75496;SDS011;64074;47.540;19.072;2023-07-08T10:06:30;6.63;;;3.88;;
75496;SDS011;64074;47.540;19.072;2023-07-08T10:09:38;6.00;;;3.17;;
75496;SDS011;64074;47.540;19.072;2023-07-08T10:12:41;4.05;;;3.25;;
75496;SDS011;64074;47.540;19.072;2023-07-08T10:16:06;4.95;;;3.83;;
75496;SDS011;64074;47.540;19.072;2023-07-08T10:19:27;7.05;;;3.50;;
75496;SDS011;64074;47.540;19.072;2023-07-08T10:22:36;5.13;;;3.95;;
75496;SDS011;64074;47.540;19.072;2023-07-08T10:25:58;4.23;;;3.60;;
75496;SDS011;64074;47.540;19.072;2023-07-08T10:49:10;3.67;;;3.30;;
75496;SDS011;64074;47.540;19.072;2023-07-08T11:02:52;3.65;;;3.17;;
75496;SDS011;64074;47.540;19.072;2023-07-08T11:06:14;7.63;;;4.13;;
75496;SDS011;64074;47.540;19.072;2023-07-08T11:09:24;4.78;;;3.88;;
75496;SDS011;64074;47.540;19.072;2023-07-08T11:12:48;5.30;;;4.20;;
75496;SDS011;64074;47.540;19.072;2023-07-08T11:19:19;4.95;;;3.70;;
75496;SDS011;64074;47.540;19.072;2023-07-08T11:22:34;4.47;;;3.88;;
75496;SDS011;64074;47.540;19.072;2023-07-08T11:25:47;4.22;;;3.83;;
75496;SDS011;64074;47.540;19.072;2023-07-08T11:28:57;6.15;;;3.88;;
75496;SDS011;64074;47.540;19.072;2023-07-08T11:32:02;4.37;;;3.60;;
75496;SDS011;64074;47.540;19.072;2023-07-08T11:35:13;5.80;;;4.07;;
75496;SDS011;64074;47.540;19.072;2023-07-08T11:38:22;4.22;;;3.80;;
75496;SDS011;64074;47.540;19.072;2023-07-08T11:41:26;4.53;;;4.13;;
75496;SDS011;64074;47.540;19.072;2023-07-08T11:44:33;4.70;;;4.20;;
75496;SDS011;64074;47.540;19.072;2023-07-08T11:47:41;4.00;;;3.60;;
75496;SDS011;64074;47.540;19.072;2023-07-08T11:50:50;4.40;;;3.80;;
75496;SDS011;64074;47.540;19.072;2023-07-08T11:54:00;4.32;;;3.92;;
75496;SDS011;64074;47.540;19.072;2023-07-08T11:57:18;4.07;;;3.78;;
75496;SDS011;64074;47.540;19.072;2023-07-08T12:00:30;6.07;;;4.03;;
75496;SDS011;64074;47.540;19.072;2023-07-08T12:03:38;4.30;;;3.90;;
75496;SDS011;64074;47.540;19.072;2023-07-08T12:06:54;4.28;;;3.88;;
75496;SDS011;64074;47.540;19.072;2023-07-08T12:10:10;6.90;;;4.10;;
75496;SDS011;64074;47.540;19.072;2023-07-08T12:13:18;6.53;;;4.00;;
75496;SDS011;64074;47.540;19.072;2023-07-08T12:16:25;4.50;;;4.10;;
75496;SDS011;64074;47.540;19.072;2023-07-08T12:19:30;4.33;;;3.80;;
75496;SDS011;64074;47.540;19.072;2023-07-08T12:22:38;5.55;;;4.22;;
75496;SDS011;64074;47.540;19.072;2023-07-08T12:25:42;8.02;;;4.20;;
75496;SDS011;64074;47.540;19.072;2023-07-08T12:28:45;10.07;;;4.13;;
75496;SDS011;64074;47.540;19.072;2023-07-08T12:31:51;5.18;;;4.25;;
75496;SDS011;64074;47.540;19.072;2023-07-08T12:34:54;4.50;;;4.10;;
75496;SDS011;64074;47.540;19.072;2023-07-08T12:37:59;4.72;;;4.30;;
75496;SDS011;64074;47.540;19.072;2023-07-08T12:41:12;5.07;;;4.30;;
75496;SDS011;64074;47.540;19.072;2023-07-08T12:44:23;4.70;;;4.30;;
75496;SDS011;64074;47.540;19.072;2023-07-08T12:47:28;5.50;;;4.38;;
75496;SDS011;64074;47.540;19.072;2023-07-08T12:50:32;4.53;;;4.10;;
75496;SDS011;64074;47.540;19.072;2023-07-08T12:53:35;4.65;;;4.25;;
75496;SDS011;64074;47.540;19.072;2023-07-08T12:56:39;5.25;;;4.18;;
75496;SDS011;64074;47.540;19.072;2023-07-08T12:59:45;4.75;;;3.80;;
75496;SDS011;64074;47.540;19.072;2023-07-08T13:02:50;5.35;;;4.57;;
75496;SDS011;64074;47.540;19.072;2023-07-08T13:06:05;5.13;;;4.73;;
75496;SDS011;64074;47.540;19.072;2023-07-08T13:12:18;6.53;;;4.60;;
75496;SDS011;64074;47.540;19.072;2023-07-08T13:15:33;4.88;;;4.03;;
75496;SDS011;64074;47.540;19.072;2023-07-08T13:18:42;6.95;;;4.32;;
75496;SDS011;64074;47.540;19.072;2023-07-08T13:21:46;5.60;;;4.33;;
75496;SDS011;64074;47.540;19.072;2023-07-08T13:24:58;5.20;;;4.80;;
75496;SDS011;64074;47.540;19.072;2023-07-08T13:28:14;4.85;;;4.45;;
75496;SDS011;64074;47.540;19.072;2023-07-08T13:31:23;4.80;;;4.40;;
75496;SDS011;64074;47.540;19.072;2023-07-08T13:34:27;5.32;;;4.30;;
75496;SDS011;64074;47.540;19.072;2023-07-08T13:37:30;4.97;;;4.53;;
75496;SDS011;64074;47.540;19.072;2023-07-08T13:40:34;5.20;;;4.78;;
75496;SDS011;64074;47.540;19.072;2023-07-08T13:43:48;5.03;;;4.63;;
75496;SDS011;64074;47.540;19.072;2023-07-08T13:46:53;4.82;;;4.40;;
75496;SDS011;64074;47.540;19.072;2023-07-08T13:50:06;5.30;;;4.50;;
75496;SDS011;64074;47.540;19.072;2023-07-08T13:53:18;8.20;;;4.63;;
75496;SDS011;64074;47.540;19.072;2023-07-08T13:56:36;5.43;;;4.30;;
75496;SDS011;64074;47.540;19.072;2023-07-08T13:59:39;5.22;;;4.72;;
75496;SDS011;64074;47.540;19.072;2023-07-08T14:02:43;5.65;;;5.15;;
75496;SDS011;64074;47.540;19.072;2023-07-08T14:05:49;4.90;;;4.40;;
75496;SDS011;64074;47.540;19.072;2023-07-08T14:08:54;5.40;;;4.83;;
75496;SDS011;64074;47.540;19.072;2023-07-08T14:11:59;5.95;;;4.40;;
75496;SDS011;64074;47.540;19.072;2023-07-08T14:15:02;5.20;;;4.55;;
75496;SDS011;64074;47.540;19.072;2023-07-08T14:18:06;6.65;;;4.82;;
75496;SDS011;64074;47.540;19.072;2023-07-08T14:21:12;6.18;;;5.57;;
75496;SDS011;64074;47.540;19.072;2023-07-08T14:24:16;5.10;;;4.60;;
75496;SDS011;64074;47.540;19.072;2023-07-08T14:27:19;4.53;;;4.20;;
75496;SDS011;64074;47.540;19.072;2023-07-08T14:30:22;5.00;;;4.60;;
75496;SDS011;64074;47.540;19.072;2023-07-08T14:33:25;5.32;;;4.30;;
75496;SDS011;64074;47.540;19.072;2023-07-08T14:36:28;4.72;;;4.25;;
75496;SDS011;64074;47.540;19.072;2023-07-08T14:39:32;5.00;;;4.50;;
75496;SDS011;64074;47.540;19.072;2023-07-08T14:42:35;5.35;;;4.65;;
75496;SDS011;64074;47.540;19.072;2023-07-08T14:45:41;5.65;;;4.45;;
75496;SDS011;64074;47.540;19.072;2023-07-08T14:48:48;4.80;;;4.25;;
75496;SDS011;64074;47.540;19.072;2023-07-08T14:51:58;5.45;;;4.25;;
75496;SDS011;64074;47.540;19.072;2023-07-08T14:55:01;4.23;;;3.90;;
75496;SDS011;64074;47.540;19.072;2023-07-08T14:58:04;4.03;;;3.63;;
75496;SDS011;64074;47.540;19.072;2023-07-08T15:01:10;4.20;;;3.80;;
75496;SDS011;64074;47.540;19.072;2023-07-08T15:04:17;5.15;;;3.50;;
75496;SDS011;64074;47.540;19.072;2023-07-08T15:07:21;4.47;;;3.38;;
75496;SDS011;64074;47.540;19.072;2023-07-08T15:10:25;6.03;;;3.60;;
75496;SDS011;64074;47.540;19.072;2023-07-08T15:13:31;5.43;;;3.38;;
75496;SDS011;64074;47.540;19.072;2023-07-08T15:16:35;5.68;;;3.63;;
75496;SDS011;64074;47.540;19.072;2023-07-08T15:19:38;4.35;;;3.65;;
75496;SDS011;64074;47.540;19.072;2023-07-08T15:22:42;4.03;;;3.63;;
75496;SDS011;64074;47.540;19.072;2023-07-08T15:25:45;4.20;;;3.80;;
75496;SDS011;64074;47.540;19.072;2023-07-08T15:28:50;5.38;;;3.88;;
75496;SDS011;64074;47.540;19.072;2023-07-08T15:31:55;6.18;;;3.75;;
75496;SDS011;64074;47.540;19.072;2023-07-08T15:34:58;5.60;;;3.60;;
75496;SDS011;64074;47.540;19.072;2023-07-08T15:38:02;4.18;;;3.78;;
75496;SDS011;64074;47.540;19.072;2023-07-08T15:41:20;5.80;;;3.53;;
75496;SDS011;64074;47.540;19.072;2023-07-08T15:44:25;4.10;;;3.58;;
75496;SDS011;64074;47.540;19.072;2023-07-08T15:47:27;4.03;;;3.63;;
75496;SDS011;64074;47.540;19.072;2023-07-08T15:50:30;4.22;;;3.83;;
75496;SDS011;64074;47.540;19.072;2023-07-08T15:53:33;3.78;;;3.20;;
75496;SDS011;64074;47.540;19.072;2023-07-08T15:56:37;3.90;;;3.50;;
75496;SDS011;64074;47.540;19.072;2023-07-08T15:59:41;4.28;;;3.70;;
75496;SDS011;64074;47.540;19.072;2023-07-08T16:02:45;3.67;;;3.38;;
75496;SDS011;64074;47.540;19.072;2023-07-08T16:05:48;5.13;;;3.35;;
75496;SDS011;64074;47.540;19.072;2023-07-08T16:08:51;3.97;;;3.67;;
75496;SDS011;64074;47.540;19.072;2023-07-08T16:11:54;4.13;;;3.67;;
75496;SDS011;64074;47.540;19.072;2023-07-08T16:14:57;3.70;;;3.40;;
75496;SDS011;64074;47.540;19.072;2023-07-08T16:18:01;4.40;;;3.75;;
75496;SDS011;64074;47.540;19.072;2023-07-08T16:21:05;4.47;;;3.40;;
75496;SDS011;64074;47.540;19.072;2023-07-08T16:24:09;8.82;;;3.88;;
75496;SDS011;64074;47.540;19.072;2023-07-08T16:27:12;5.23;;;3.50;;
75496;SDS011;64074;47.540;19.072;2023-07-08T16:30:19;3.50;;;3.20;;
75496;SDS011;64074;47.540;19.072;2023-07-08T16:33:24;4.57;;;3.60;;
75496;SDS011;64074;47.540;19.072;2023-07-08T16:36:27;4.55;;;3.40;;
75496;SDS011;64074;47.540;19.072;2023-07-08T16:39:31;4.30;;;3.70;;
75496;SDS011;64074;47.540;19.072;2023-07-08T16:42:34;7.37;;;4.37;;
75496;SDS011;64074;47.540;19.072;2023-07-08T16:45:38;4.53;;;3.85;;
75496;SDS011;64074;47.540;19.072;2023-07-08T16:48:41;4.85;;;3.58;;
75496;SDS011;64074;47.540;19.072;2023-07-08T16:51:45;3.85;;;3.47;;
75496;SDS011;64074;47.540;19.072;2023-07-08T16:54:49;4.45;;;3.53;;
75496;SDS011;64074;47.540;19.072;2023-07-08T16:57:53;3.60;;;3.30;;
75496;SDS011;64074;47.540;19.072;2023-07-08T17:00:56;4.10;;;3.40;;
75496;SDS011;64074;47.540;19.072;2023-07-08T17:03:59;6.45;;;3.88;;
75496;SDS011;64074;47.540;19.072;2023-07-08T17:07:04;4.68;;;3.78;;
75496;SDS011;64074;47.540;19.072;2023-07-08T17:10:13;4.53;;;3.33;;
75496;SDS011;64074;47.540;19.072;2023-07-08T17:13:16;8.27;;;3.70;;
75496;SDS011;64074;47.540;19.072;2023-07-08T17:16:22;7.63;;;3.60;;
75496;SDS011;64074;47.540;19.072;2023-07-08T17:19:36;5.22;;;3.47;;
75496;SDS011;64074;47.540;19.072;2023-07-08T17:22:39;4.60;;;3.53;;
75496;SDS011;64074;47.540;19.072;2023-07-08T17:25:42;4.57;;;3.35;;
75496;SDS011;64074;47.540;19.072;2023-07-08T17:28:50;5.33;;;3.10;;
75496;SDS011;64074;47.540;19.072;2023-07-08T17:31:53;4.22;;;2.97;;
75496;SDS011;64074;47.540;19.072;2023-07-08T17:34:58;4.95;;;3.60;;
75496;SDS011;64074;47.540;19.072;2023-07-08T17:38:01;4.65;;;3.30;;
75496;SDS011;64074;47.540;19.072;2023-07-08T17:41:04;3.63;;;3.20;;
75496;SDS011;64074;47.540;19.072;2023-07-08T17:44:07;3.87;;;3.40;;
75496;SDS011;64074;47.540;19.072;2023-07-08T17:47:10;4.85;;;3.58;;
75496;SDS011;64074;47.540;19.072;2023-07-08T17:50:16;7.60;;;3.80;;
75496;SDS011;64074;47.540;19.072;2023-07-08T17:53:27;4.78;;;3.50;;
75496;SDS011;64074;47.540;19.072;2023-07-08T17:56:37;4.53;;;3.80;;
75496;SDS011;64074;47.540;19.072;2023-07-08T17:59:42;3.90;;;3.50;;
75496;SDS011;64074;47.540;19.072;2023-07-08T18:02:45;4.47;;;3.50;;
75496;SDS011;64074;47.540;19.072;2023-07-08T18:05:49;4.72;;;3.53;;
75496;SDS011;64074;47.540;19.072;2023-07-08T18:08:54;4.57;;;3.72;;
75496;SDS011;64074;47.540;19.072;2023-07-08T18:11:57;5.80;;;4.13;;
75496;SDS011;64074;47.540;19.072;2023-07-08T18:15:01;7.40;;;4.00;;
75496;SDS011;64074;47.540;19.072;2023-07-08T18:18:06;6.47;;;3.63;;
75496;SDS011;64074;47.540;19.072;2023-07-08T18:24:23;7.15;;;3.45;;
75496;SDS011;64074;47.540;19.072;2023-07-08T18:27:26;5.00;;;3.78;;
75496;SDS011;64074;47.540;19.072;2023-07-08T18:30:29;5.63;;;3.70;;
75496;SDS011;64074;47.540;19.072;2023-07-08T18:33:32;6.65;;;3.88;;
75496;SDS011;64074;47.540;19.072;2023-07-08T18:36:36;6.15;;;3.83;;
75496;SDS011;64074;47.540;19.072;2023-07-08T18:39:40;4.80;;;3.70;;
75496;SDS011;64074;47.540;19.072;2023-07-08T18:46:19;6.63;;;3.60;;
75496;SDS011;64074;47.540;19.072;2023-07-08T18:49:23;8.13;;;3.90;;
75496;SDS011;64074;47.540;19.072;2023-07-08T18:52:28;7.72;;;3.70;;
75496;SDS011;64074;47.540;19.072;2023-07-08T18:55:31;9.32;;;3.88;;
75496;SDS011;64074;47.540;19.072;2023-07-08T18:58:34;5.25;;;3.55;;
75496;SDS011;64074;47.540;19.072;2023-07-08T19:01:40;7.57;;;4.10;;
75496;SDS011;64074;47.540;19.072;2023-07-08T19:04:45;7.55;;;4.00;;
75496;SDS011;64074;47.540;19.072;2023-07-08T19:07:52;6.57;;;4.57;;
75496;SDS011;64074;47.540;19.072;2023-07-08T19:10:56;10.30;;;4.05;;
75496;SDS011;64074;47.540;19.072;2023-07-08T19:14:00;6.13;;;4.20;;